Current Weather

Lawrence Municipal Airport

Lawrence Municipal Airport, Massachusetts (KLWM)

Report from: Sunday, May 22, 2022 3:54 AM EDT
Current time: Sunday, May 22, 2022 4:09 AM EDT

Nearby weather
Weather history
Weather forecast

Temperature14.4°C (57.9°F)
Dew point13.9°C (57.0°F)
Winds 4 kts (2.1 m/s, 4.6 mph) Northeast (50°)
Visibility8 mi. (12.9 km)
Clouds Ceiling: Overcast 200 ft. (61 m)
Altimeter30.00 in.Hg (1016 mB)
Relative humidity97 %
Density altitude59 ft. (18 m)
Sea-level pressure101.6 kPa (1016 mB, 29.99 in.Hg)
Remarks Fully automated report
Automated weather observing station with precipitation discriminator
Flight conditions Low Instrument Meteorological Conditions
Raw dataKLWM 220754Z AUTO 05004KT 8SM OVC002 14/14 A3000 RMK AO2 SLP157 T01440139
An error has occurred. This application may no longer respond until reloaded. Reload 🗙